Time;durP1;ratioP1;P1;durP2;ratioP2;P2;SDS_P1;SDS_P2;PMS_P1;PMS_P2;Temp;Humidity;BMP_temperature;BMP_pressure;BME280_temperature;BME280_humidity;BME280_pressure;Samples;Min_cycle;Max_cycle;Signal;HPM_P1;HPM_P2
2023/08/06 00:00:23;;;;;;;3.03;0.85;;;;;;;-142.57;100.00;115900.28;5066377;28;20051;-82
2023/08/06 00:02:49;;;;;;;2.30;0.63;;;;;;;-142.57;100.00;115900.28;5067073;28;20097;-83
2023/08/06 00:05:20;;;;;;;0.82;0.40;;;;;;;-142.57;100.00;115900.28;5073924;23;20056;-83
2023/08/06 00:08:15;;;;;;;3.40;0.60;;;;;;;-142.57;100.00;115900.28;5070790;28;20045;-83
2023/08/06 00:10:47;;;;;;;1.90;0.57;;;;;;;-142.57;100.00;115900.28;5086369;23;20040;-82
2023/08/06 00:13:25;;;;;;;1.92;0.68;;;;;;;-142.57;100.00;115900.28;5046990;28;20057;-82
2023/08/06 00:15:53;;;;;;;1.95;0.68;;;;;;;-142.57;100.00;115900.28;5059600;23;20092;-82
2023/08/06 00:18:33;;;;;;;3.47;0.55;;;;;;;-142.57;100.00;115900.28;5067527;28;20063;-84
2023/08/06 00:20:59;;;;;;;3.03;0.57;;;;;;;-142.57;100.00;115900.28;5066194;28;20033;-84
2023/08/06 00:23:31;;;;;;;4.18;0.73;;;;;;;-142.57;100.00;115900.28;5066276;28;20458;-82
2023/08/06 00:26:19;;;;;;;1.50;0.50;;;;;;;-142.57;100.00;115900.28;5070211;28;20106;-83
2023/08/06 00:28:48;;;;;;;3.22;0.68;;;;;;;-142.57;100.00;115900.28;5069124;28;20025;-83
2023/08/06 00:31:14;;;;;;;1.65;0.98;;;;;;;-142.57;100.00;115900.28;5074235;23;20116;-82
2023/08/06 00:33:57;;;;;;;1.25;0.80;;;;;;;-142.57;100.00;115900.28;5066022;28;20035;-83
2023/08/06 00:36:23;;;;;;;1.38;0.60;;;;;;;-142.57;100.00;115900.28;5064844;28;20437;-83
2023/08/06 00:38:49;;;;;;;5.53;0.70;;;;;;;-142.57;100.00;115900.28;5059492;28;20033;-83
2023/08/06 00:41:38;;;;;;;1.63;0.68;;;;;;;-142.57;100.00;115900.28;5064717;28;20037;-82
2023/08/06 00:44:12;;;;;;;2.17;0.73;;;;;;;-142.57;100.00;115900.28;5066427;28;20033;-83
2023/08/06 00:46:39;;;;;;;1.30;0.82;;;;;;;-142.57;100.00;115900.28;5063077;28;20083;-82
2023/08/06 00:49:19;;;;;;;3.55;0.88;;;;;;;-142.57;100.00;115900.28;5063521;28;20025;-82
2023/08/06 00:51:47;;;;;;;2.15;0.50;;;;;;;-142.57;100.00;115900.28;5063135;28;20044;-82
2023/08/06 00:54:13;;;;;;;2.00;0.82;;;;;;;-142.57;100.00;115900.28;5062811;28;20036;-82
2023/08/06 00:56:42;;;;;;;3.15;0.82;;;;;;;-142.57;100.00;115900.28;5062428;28;20125;-82
2023/08/06 00:59:10;;;;;;;7.15;1.00;;;;;;;-142.57;100.00;115900.28;5063849;28;20033;-83
2023/08/06 01:01:37;;;;;;;2.10;0.60;;;;;;;-142.57;100.00;115900.28;5061906;28;20055;-83
2023/08/06 01:04:14;;;;;;;2.78;0.70;;;;;;;-142.57;100.00;115900.28;5063576;28;20029;-83
2023/08/06 01:07:05;;;;;;;2.85;0.80;;;;;;;-142.57;100.00;115900.28;5070644;28;20048;-83
2023/08/06 01:09:44;;;;;;;1.45;0.70;;;;;;;-142.57;100.00;115900.28;5066832;28;20037;-85
2023/08/06 01:12:35;;;;;;;2.10;0.63;;;;;;;-142.57;100.00;115900.28;5060664;28;20060;-85
2023/08/06 01:15:09;;;;;;;5.53;0.70;;;;;;;-142.57;100.00;115900.28;5061021;28;20132;-83
2023/08/06 01:17:42;;;;;;;1.75;0.68;;;;;;;-142.57;100.00;115900.28;5074243;23;20121;-83
2023/08/06 01:20:10;;;;;;;2.05;0.77;;;;;;;-142.57;100.00;115900.28;5088588;23;20037;-85
2023/08/06 01:22:36;;;;;;;5.47;0.88;;;;;;;-142.57;100.00;115900.28;5044635;28;20059;-84
2023/08/06 01:25:03;;;;;;;7.05;0.90;;;;;;;-142.57;100.00;115900.28;5055473;23;20074;-83
2023/08/06 01:27:59;;;;;;;1.63;0.90;;;;;;;-142.57;100.00;115900.28;5082389;28;20034;-84
2023/08/06 01:30:35;;;;;;;6.05;0.90;;;;;;;-142.57;100.00;115900.28;5080615;28;20104;-84
2023/08/06 01:33:19;;;;;;;1.40;0.73;;;;;;;-142.57;100.00;115900.28;5082436;28;20036;-83
2023/08/06 01:36:07;;;;;;;2.28;0.88;;;;;;;-142.57;100.00;115900.28;5082435;28;20036;-84
2023/08/06 01:38:33;;;;;;;4.43;0.80;;;;;;;-142.57;100.00;115900.28;5083109;28;20485;-83
2023/08/06 01:41:21;;;;;;;0.95;0.80;;;;;;;-142.57;100.00;115900.28;5067060;28;20024;-83
2023/08/06 01:43:47;;;;;;;1.80;0.63;;;;;;;-142.57;100.00;115900.28;5082606;28;20055;-84
2023/08/06 01:46:14;;;;;;;2.95;0.90;;;;;;;-142.57;100.00;115900.28;5087161;28;20040;-82
2023/08/06 01:48:39;;;;;;;0.90;0.50;;;;;;;-142.57;100.00;115900.28;5070463;28;20428;-83
2023/08/06 01:51:05;;;;;;;3.10;0.95;;;;;;;-142.57;100.00;115900.28;5087407;28;20028;-82
2023/08/06 01:53:31;;;;;;;3.10;0.90;;;;;;;-142.57;100.00;115900.28;5087578;28;20040;-82
2023/08/06 01:56:01;;;;;;;4.85;1.05;;;;;;;-142.57;100.00;115900.28;5069667;28;20032;-84
2023/08/06 01:58:27;;;;;;;2.38;1.17;;;;;;;-142.57;100.00;115900.28;5068970;28;20025;-83
2023/08/06 02:00:53;;;;;;;2.15;0.70;;;;;;;-142.57;100.00;115900.28;5068936;28;20032;-83
2023/08/06 02:03:31;;;;;;;3.55;0.75;;;;;;;-142.57;100.00;115900.28;5069307;28;20524;-82
2023/08/06 02:05:56;;;;;;;2.95;1.38;;;;;;;-142.57;100.00;115900.28;5069205;28;20041;-83
2023/08/06 02:08:29;;;;;;;4.05;0.80;;;;;;;-142.57;100.00;115900.28;5069611;28;20038;-82
2023/08/06 02:11:12;;;;;;;1.17;0.70;;;;;;;-142.57;100.00;115900.28;5087219;28;20037;-84
2023/08/06 02:13:41;;;;;;;3.40;0.80;;;;;;;-142.57;100.00;115900.28;5073245;23;20424;-83
2023/08/06 02:16:11;;;;;;;3.30;0.90;;;;;;;-142.57;100.00;115900.28;5067977;28;20032;-84
2023/08/06 02:18:39;;;;;;;3.40;0.80;;;;;;;-142.57;100.00;115900.28;5066862;28;20041;-84
2023/08/06 02:21:08;;;;;;;2.97;1.10;;;;;;;-142.57;100.00;115900.28;5063595;28;20083;-83
2023/08/06 02:23:38;;;;;;;2.28;0.68;;;;;;;-142.57;100.00;115900.28;5064559;28;20045;-83
2023/08/06 02:26:16;;;;;;;1.58;0.85;;;;;;;-142.57;100.00;115900.28;5064377;28;20049;-85
2023/08/06 02:31:16;;;;;;;2.10;0.90;;;;;;;-142.57;100.00;115900.28;4745724;23;1243328;-84
2023/08/06 02:33:44;;;;;;;1.38;1.10;;;;;;;-142.57;100.00;115900.28;5067075;28;20029;-83
2023/08/06 02:36:30;;;;;;;6.85;1.10;;;;;;;-142.57;100.00;115900.28;5067134;28;20577;-83
2023/08/06 02:39:04;;;;;;;1.85;1.23;;;;;;;-142.57;100.00;115900.28;5066860;28;20044;-82
2023/08/06 02:41:30;;;;;;;5.80;1.30;;;;;;;-142.57;100.00;115900.28;5067286;28;20025;-83
2023/08/06 02:43:57;;;;;;;3.38;1.35;;;;;;;-142.57;100.00;115900.28;5070925;28;20043;-81
2023/08/06 02:46:27;;;;;;;3.75;1.30;;;;;;;-142.57;100.00;115900.28;5075314;28;20191;-84
2023/08/06 02:48:52;;;;;;;2.83;1.48;;;;;;;-142.57;100.00;115900.28;5058191;28;20041;-83
2023/08/06 02:51:18;;;;;;;3.03;1.40;;;;;;;-142.57;100.00;115900.28;5075469;28;20040;-84
2023/08/06 02:53:47;;;;;;;2.67;1.30;;;;;;;-142.57;100.00;115900.28;5076288;28;20056;-83
2023/08/06 02:56:54;;;;;;;1.88;1.30;;;;;;;-142.57;100.00;115900.28;5073339;28;20095;-84
2023/08/06 02:59:28;;;;;;;1.98;1.30;;;;;;;-142.57;100.00;115900.28;5065489;28;20128;-83
2023/08/06 03:02:16;;;;;;;2.78;1.25;;;;;;;-142.57;100.00;115900.28;5074099;23;21057;-83
2023/08/06 03:05:01;;;;;;;2.63;1.67;;;;;;;-142.57;100.00;115900.28;5073011;23;20029;-84
2023/08/06 03:07:48;;;;;;;1.58;1.13;;;;;;;-142.57;100.00;115900.28;5066138;28;20067;-83
2023/08/06 03:10:55;;;;;;;2.63;1.00;;;;;;;-142.57;100.00;115900.28;5067430;28;20037;-82
2023/08/06 03:13:24;;;;;;;1.58;1.10;;;;;;;-142.57;100.00;115900.28;5091891;23;20554;-83
2023/08/06 03:16:15;;;;;;;2.70;1.48;;;;;;;-142.57;100.00;115900.28;5083873;28;20051;-82
2023/08/06 03:18:52;;;;;;;1.70;1.13;;;;;;;-142.57;100.00;115900.28;5074241;28;20036;-82
2023/08/06 03:21:19;;;;;;;3.08;1.58;;;;;;;-142.57;100.00;115900.28;5068900;28;20044;-83
2023/08/06 03:23:50;;;;;;;4.45;1.38;;;;;;;-142.57;100.00;115900.28;5089234;28;20073;-83
2023/08/06 03:26:21;;;;;;;1.65;0.90;;;;;;;-142.57;100.00;115900.28;5069026;28;20041;-82
2023/08/06 03:28:50;;;;;;;2.75;1.50;;;;;;;-142.57;100.00;115900.28;5070185;28;20077;-83
2023/08/06 03:33:56;;;;;;;2.05;1.33;;;;;;;-142.57;100.00;115900.28;5048283;28;20047;-83
2023/08/06 03:36:33;;;;;;;2.80;1.42;;;;;;;-142.57;100.00;115900.28;5049321;28;20163;-83
2023/08/06 03:42:26;;;;;;;2.47;1.60;;;;;;;-142.57;100.00;115900.28;5006663;28;20073;-83
2023/08/06 03:44:52;;;;;;;3.55;1.55;;;;;;;-142.57;100.00;115900.28;4990001;28;20500;-83
2023/08/06 03:47:22;;;;;;;2.70;1.65;;;;;;;-142.57;100.00;115900.28;4989790;28;20128;-83
2023/08/06 03:49:53;;;;;;;2.90;1.60;;;;;;;-142.57;100.00;115900.28;5005208;28;20097;-83
2023/08/06 03:52:33;;;;;;;1.42;1.25;;;;;;;-142.57;100.00;115900.28;5005981;28;20038;-83
2023/08/06 03:55:00;;;;;;;2.85;1.42;;;;;;;-142.57;100.00;115900.28;4989174;28;20038;-83
2023/08/06 03:57:30;;;;;;;2.60;1.73;;;;;;;-142.57;100.00;115900.28;5006336;28;20054;-84
2023/08/06 04:00:00;;;;;;;5.43;1.40;;;;;;;-142.57;100.00;115900.28;5005434;28;20500;-84
2023/08/06 04:02:28;;;;;;;;;;;;;;;-142.57;100.00;115900.28;4991072;28;20038;-84
2023/08/06 04:04:58;;;;;;;8.93;1.52;;;;;;;-142.57;100.00;115900.28;5005996;28;19920;-84
2023/08/06 04:07:36;;;;;;;3.80;1.35;;;;;;;-142.57;99.74;115900.28;5004744;28;20034;-83
2023/08/06 04:10:04;;;;;;;2.75;1.10;;;;;;;-142.57;97.89;115900.28;4984466;28;20399;-83
2023/08/06 04:12:39;;;;;;;1.45;1.05;;;;;;;-142.57;95.44;115900.28;4987306;28;20053;-82
2023/08/06 04:15:09;;;;;;;2.20;0.65;;;;;;;-142.57;92.73;115900.28;4988675;28;20057;-83
2023/08/06 04:17:44;;;;;;;3.38;1.05;;;;;;;-142.57;90.34;115900.28;5005267;28;20053;-83
2023/08/06 04:20:14;;;;;;;2.10;0.70;;;;;;;-142.57;88.57;115900.28;5005576;28;20045;-83
2023/08/06 04:22:48;;;;;;;1.00;0.70;;;;;;;-142.57;86.80;115900.28;5005566;28;20506;-83
2023/08/06 04:25:20;;;;;;;2.42;0.55;;;;;;;-142.57;86.22;115900.28;5010066;28;20041;-84
2023/08/06 04:28:04;;;;;;;3.17;0.60;;;;;;;-142.57;85.86;115900.28;4989019;28;20049;-84
2023/08/06 04:30:30;;;;;;;1.17;0.40;;;;;;;-142.57;85.16;115900.28;5008967;28;20034;-84
2023/08/06 04:33:02;;;;;;;1.65;0.80;;;;;;;-142.57;83.80;115900.28;4990247;28;20026;-82
2023/08/06 04:35:28;;;;;;;4.20;0.70;;;;;;;-142.57;82.39;115900.28;5153522;23;20041;-84
2023/08/06 04:38:05;;;;;;;1.52;0.80;;;;;;;-142.57;82.19;115900.28;5058521;28;20045;-84
2023/08/06 04:40:37;;;;;;;3.42;0.60;;;;;;;-142.57;81.57;115900.28;5064634;28;20039;-84
2023/08/06 04:43:03;;;;;;;1.38;0.50;;;;;;;-142.57;81.07;115900.28;5064043;28;20031;-82
2023/08/06 04:45:32;;;;;;;1.85;0.77;;;;;;;-142.57;81.84;115900.28;5070543;23;20049;-84
2023/08/06 04:47:57;;;;;;;4.05;0.85;;;;;;;-142.57;82.50;115900.28;5071008;22;20071;-83
2023/08/06 04:50:23;;;;;;;3.75;0.60;;;;;;;-142.57;81.21;115900.28;5065015;28;20078;-82
2023/08/06 04:52:52;;;;;;;1.20;0.52;;;;;;;-142.57;80.31;115900.28;5065411;28;20047;-83
2023/08/06 04:55:24;;;;;;;1.15;0.47;;;;;;;-142.57;80.09;115900.28;5067057;28;20056;-83
2023/08/06 04:57:50;;;;;;;;;;;;;;;-142.57;79.48;115900.28;5066843;28;20633;-83
2023/08/06 05:00:15;;;;;;;1.15;0.38;;;;;;;-142.57;76.34;115900.28;5067860;23;19912;-83
2023/08/06 05:02:41;;;;;;;4.80;0.50;;;;;;;-142.57;75.37;115900.28;5043907;28;20386;-82
2023/08/06 05:05:07;;;;;;;3.70;0.68;;;;;;;-142.57;74.21;115900.28;5042396;28;20036;-83
2023/08/06 05:07:38;;;;;;;1.50;0.40;;;;;;;-142.57;74.49;115900.28;5039936;28;20371;-84
2023/08/06 05:10:07;;;;;;;2.30;0.60;;;;;;;-142.57;75.84;115900.28;5042895;28;20032;-84
2023/08/06 05:12:35;;;;;;;8.70;0.85;;;;;;;-142.57;75.93;115900.28;5040894;28;20433;-83
2023/08/06 05:15:16;;;;;;;5.90;0.60;;;;;;;-142.57;75.75;115900.28;5046000;28;20041;-82
2023/08/06 05:17:56;;;;;;;;;;;;;;;-142.57;75.19;115900.28;5047370;28;20037;-85
2023/08/06 05:20:22;;;;;;;3.90;0.63;;;;;;;-142.57;74.24;115900.28;5056007;23;19990;-83
2023/08/06 05:22:48;;;;;;;0.80;0.40;;;;;;;-142.57;73.97;115900.28;5064758;28;20041;-84
2023/08/06 05:25:14;;;;;;;4.18;0.35;;;;;;;-142.57;73.88;115900.28;5070970;23;20037;-86
2023/08/06 05:27:40;;;;;;;1.48;0.50;;;;;;;-142.57;73.66;115900.28;5063276;28;20025;-84
2023/08/06 05:30:10;;;;;;;1.20;0.57;;;;;;;-142.57;72.54;115900.28;5065711;28;20111;-83
2023/08/06 05:35:16;;;;;;;4.20;0.68;;;;;;;-142.57;69.37;115900.28;5064812;28;20052;-83
2023/08/06 05:37:51;;;;;;;5.43;0.50;;;;;;;-142.57;68.16;115900.28;5075855;23;20057;-83
2023/08/06 05:40:17;;;;;;;2.50;0.73;;;;;;;-142.57;65.76;115900.28;5067566;28;20051;-84
2023/08/06 05:42:45;;;;;;;4.40;0.70;;;;;;;-142.57;64.19;115900.28;5067514;28;20033;-83
2023/08/06 05:45:11;;;;;;;1.65;0.60;;;;;;;-142.57;62.10;115900.28;5067505;28;20036;-84
2023/08/06 05:47:48;;;;;;;0.40;0.30;;;;;;;-142.57;57.39;115900.28;5075890;23;20439;-83
2023/08/06 05:50:20;;;;;;;2.47;0.40;;;;;;;-142.57;56.69;115900.28;5064146;28;20045;-84
2023/08/06 05:52:51;;;;;;;4.80;0.50;;;;;;;-142.57;54.27;115900.28;5067361;28;20037;-83
2023/08/06 05:55:17;;;;;;;1.25;0.32;;;;;;;-142.57;53.86;115900.28;5069758;28;20037;-83
2023/08/06 05:57:43;;;;;;;3.15;0.32;;;;;;;-142.57;52.30;115900.28;5068140;28;20036;-84
2023/08/06 06:00:09;;;;;;;2.92;0.40;;;;;;;-142.57;50.05;115900.28;5040899;23;20103;-82
2023/08/06 06:03:04;;;;;;;3.30;0.40;;;;;;;-142.57;47.50;115900.28;5068747;28;20085;-83
2023/08/06 06:05:30;;;;;;;0.43;0.25;;;;;;;-142.57;47.34;115900.28;5063341;28;20505;-83
2023/08/06 06:07:56;;;;;;;2.35;0.40;;;;;;;-142.57;47.36;115900.28;5066816;28;20033;-84
2023/08/06 06:10:24;;;;;;;1.75;0.52;;;;;;;-142.57;48.43;115900.28;5065452;28;20032;-85
2023/08/06 06:12:52;;;;;;;4.30;0.45;;;;;;;-142.57;49.24;115900.28;5074942;23;20025;-84
2023/08/06 06:15:41;;;;;;;2.00;0.40;;;;;;;-142.57;49.72;115900.28;5069111;28;20064;-86
2023/08/06 06:18:07;;;;;;;2.35;0.47;;;;;;;-142.57;48.96;115900.28;5073683;28;20037;-84
2023/08/06 06:20:42;;;;;;;3.50;0.90;;;;;;;-142.57;48.25;115900.28;5068440;28;20045;-82
2023/08/06 06:23:08;;;;;;;;;;;;;;;-142.57;48.94;115900.28;5069508;28;20037;-84
2023/08/06 06:25:34;;;;;;;3.80;1.80;;;;;;;-142.57;51.00;115900.28;5069971;23;19932;-84
2023/08/06 06:28:00;;;;;;;4.57;1.10;;;;;;;-142.57;48.76;115900.28;5030387;28;20104;-84
2023/08/06 06:30:25;;;;;;;2.58;0.75;;;;;;;-142.57;46.99;115900.28;5013050;28;20029;-85
2023/08/06 06:32:51;;;;;;;1.85;1.00;;;;;;;-142.57;51.10;115900.28;5047452;28;20033;-83
2023/08/06 06:35:34;;;;;;;1.95;0.90;;;;;;;-142.57;49.73;115900.28;5048057;28;20033;-83
2023/08/06 06:38:09;;;;;;;3.10;0.68;;;;;;;-142.57;51.04;115900.28;5048316;28;20034;-85
2023/08/06 06:40:35;;;;;;;3.97;0.60;;;;;;;-142.57;51.40;115900.28;5043231;28;20100;-85
2023/08/06 06:43:03;;;;;;;3.83;0.52;;;;;;;-142.57;49.27;115900.28;5048747;28;20032;-85
2023/08/06 06:45:57;;;;;;;2.17;0.70;;;;;;;-142.57;47.64;115900.28;5047395;28;20033;-84
2023/08/06 06:48:27;;;;;;;3.60;0.60;;;;;;;-142.57;47.41;115900.28;5040346;28;20045;-84
2023/08/06 06:50:57;;;;;;;1.98;0.68;;;;;;;-142.57;44.65;115900.28;5043360;28;20092;-84
2023/08/06 06:53:30;;;;;;;2.67;0.70;;;;;;;-142.57;43.18;115900.28;5067491;23;20045;-84
2023/08/06 06:56:03;;;;;;;4.82;0.57;;;;;;;-142.57;43.26;115900.28;5071047;23;20057;-84
2023/08/06 06:58:35;;;;;;;5.80;0.98;;;;;;;-142.57;44.77;115900.28;5065638;28;20037;-84
2023/08/06 07:01:04;;;;;;;2.83;1.10;;;;;;;-142.57;44.16;115900.28;5073649;23;20369;-82
2023/08/06 07:03:39;;;;;;;3.83;1.58;;;;;;;-142.57;45.01;115900.28;5065032;28;20041;-84
2023/08/06 07:06:15;;;;;;;1.48;0.80;;;;;;;-142.57;44.08;115900.28;5066214;28;20052;-86
2023/08/06 07:08:43;;;;;;;5.28;0.90;;;;;;;-142.57;46.35;115900.28;5066998;28;20044;-83
2023/08/06 07:11:15;;;;;;;2.15;1.00;;;;;;;-142.57;43.14;115900.28;5062379;28;20104;-84
2023/08/06 07:13:41;;;;;;;0.90;0.50;;;;;;;-142.57;43.79;115900.28;5062250;28;20033;-84
2023/08/06 07:16:10;;;;;;;3.53;0.57;;;;;;;-142.57;42.73;115900.28;5064250;28;20044;-86
2023/08/06 07:18:38;;;;;;;3.25;0.68;;;;;;;-142.57;42.08;115900.28;5066499;28;20059;-85
2023/08/06 07:21:04;;;;;;;0.82;0.55;;;;;;;-142.57;40.53;115900.28;5065090;28;20096;-84
2023/08/06 07:23:30;;;;;;;1.45;0.60;;;;;;;-142.57;38.88;115900.28;5067286;28;20108;-88
2023/08/06 07:28:30;;;;;;;1.13;0.60;;;;;;;-142.57;40.97;115900.28;4588631;26;20056;-84
2023/08/06 07:31:05;;;;;;;5.40;0.82;;;;;;;-142.57;39.56;115900.28;5064954;28;20049;-84
2023/08/06 07:33:34;;;;;;;1.80;0.60;;;;;;;-142.57;38.22;115900.28;5067883;28;20040;-84
2023/08/06 07:36:00;;;;;;;4.93;0.70;;;;;;;-142.57;39.73;115900.28;5069955;28;20037;-83
2023/08/06 07:38:29;;;;;;;4.85;0.52;;;;;;;-142.57;40.16;115900.28;5068598;28;20040;-85
2023/08/06 07:41:02;;;;;;;4.68;0.50;;;;;;;-142.57;39.51;115900.28;5090212;23;20073;-81
2023/08/06 07:43:28;;;;;;;4.00;0.30;;;;;;;-142.57;37.31;115900.28;5067286;28;20032;-81
2023/08/06 07:45:58;;;;;;;1.38;0.40;;;;;;;-142.57;36.41;115900.28;5069078;28;20067;-84
2023/08/06 07:48:27;;;;;;;2.03;0.30;;;;;;;-142.57;37.13;115900.28;5066436;28;20138;-83
2023/08/06 07:50:57;;;;;;;4.75;0.38;;;;;;;-142.57;36.37;115900.28;5067213;28;20402;-84
2023/08/06 07:53:29;;;;;;;1.50;0.40;;;;;;;-142.57;36.39;115900.28;5065663;28;20037;-82
2023/08/06 07:55:55;;;;;;;3.22;0.50;;;;;;;-142.57;34.52;115900.28;5068051;28;20033;-84
2023/08/06 07:58:21;;;;;;;1.08;0.43;;;;;;;-142.57;32.47;115900.28;5063315;28;20092;-83
2023/08/06 08:00:47;;;;;;;6.13;0.43;;;;;;;-142.57;33.70;115900.28;5064771;28;20067;-82
2023/08/06 08:03:14;;;;;;;0.85;0.45;;;;;;;-142.57;34.74;115900.28;5066015;28;20040;-80
2023/08/06 08:05:40;;;;;;;3.35;0.50;;;;;;;-142.57;33.15;115900.28;5063655;28;20163;-86
2023/08/06 08:08:06;;;;;;;2.88;0.57;;;;;;;-142.57;33.93;115900.28;5060518;28;20056;-83
2023/08/06 08:10:32;;;;;;;0.95;0.32;;;;;;;-142.57;33.93;115900.28;5064284;28;20059;-84
2023/08/06 08:12:58;;;;;;;6.05;0.55;;;;;;;-142.57;32.79;115900.28;5062541;28;20033;-86
2023/08/06 08:15:26;;;;;;;5.18;0.40;;;;;;;-142.57;32.20;115900.28;5062873;28;20381;-87
2023/08/06 08:17:52;;;;;;;3.47;0.38;;;;;;;-142.57;31.87;115900.28;5063934;28;20067;-86
2023/08/06 08:20:17;;;;;;;0.70;0.35;;;;;;;-142.57;31.83;115900.28;5042078;28;20098;-84
2023/08/06 08:22:43;;;;;;;1.58;0.40;;;;;;;-142.57;32.04;115900.28;5060101;28;20033;-87
2023/08/06 08:25:09;;;;;;;1.40;0.30;;;;;;;-142.57;31.22;115900.28;5059561;28;20037;-86
2023/08/06 08:27:34;;;;;;;1.13;0.30;;;;;;;-142.57;29.40;115900.28;5059684;28;20037;-88
2023/08/06 08:30:00;;;;;;;5.15;0.40;;;;;;;-142.57;30.04;115900.28;5059506;28;20032;-88
2023/08/06 08:32:25;;;;;;;0.60;0.20;;;;;;;-142.57;29.38;115900.28;5057821;28;20021;-86
2023/08/06 08:34:54;;;;;;;0.77;0.40;;;;;;;-142.57;29.53;115900.28;5057427;28;20047;-84
2023/08/06 08:37:19;;;;;;;2.55;0.40;;;;;;;-142.57;26.08;115900.28;5062275;28;20037;-88
2023/08/06 08:40:15;;;;;;;0.75;0.30;;;;;;;-142.57;25.37;115900.28;5070029;28;20060;-88
2023/08/06 08:43:14;;;;;;;2.00;0.50;;;;;;;-142.57;25.25;115900.28;5075118;28;20033;-88
2023/08/06 08:45:58;;;;;;;4.35;0.40;;;;;;;-142.57;24.89;115900.28;5069605;28;20056;-90
2023/08/06 08:51:47;;;;;;;5.63;0.68;;;;;;;-142.57;24.93;115900.28;2864914;23;20055;-90
2023/08/06 08:57:49;;;;;;;3.45;0.47;;;;;;;-142.57;24.83;115900.28;5104243;23;20651;-87
2023/08/06 09:00:33;;;;;;;0.40;0.30;;;;;;;-142.57;23.57;115900.28;5050065;28;20060;-89
2023/08/06 09:03:37;;;;;;;1.38;0.35;;;;;;;-142.57;24.14;115900.28;5068660;28;20044;-88
2023/08/06 09:06:04;;;;;;;1.45;0.47;;;;;;;-142.57;23.42;115900.28;5066568;28;20052;-88
2023/08/06 09:08:37;;;;;;;3.28;0.70;;;;;;;-142.57;23.48;115900.28;5060919;28;20041;-85
2023/08/06 09:11:05;;;;;;;0.90;0.50;;;;;;;-142.57;24.08;115900.28;5062679;28;20048;-89
2023/08/06 09:13:30;;;;;;;1.52;0.70;;;;;;;-142.57;23.78;115900.28;5063209;28;20469;-83
2023/08/06 09:16:00;;;;;;;1.58;0.50;;;;;;;-142.57;23.11;115900.28;5058503;28;20029;-84
2023/08/06 09:18:27;;;;;;;1.27;0.70;;;;;;;-142.57;23.41;115900.28;5054834;28;20110;-83
2023/08/06 09:20:53;;;;;;;1.35;0.40;;;;;;;-142.57;23.85;115900.28;5057558;28;20021;-83
2023/08/06 09:23:20;;;;;;;1.30;0.60;;;;;;;-142.57;23.59;115900.28;5057513;28;20028;-85
2023/08/06 09:25:45;;;;;;;2.03;0.60;;;;;;;-142.57;23.22;115900.28;5039136;28;20101;-84
2023/08/06 09:28:11;;;;;;;2.42;0.60;;;;;;;-142.57;23.29;115900.28;5055033;28;20469;-86
2023/08/06 09:30:37;;;;;;;8.60;0.60;;;;;;;-142.57;23.59;115900.28;5037741;28;20045;-84
2023/08/06 09:33:07;;;;;;;1.42;0.60;;;;;;;-142.57;23.14;115900.28;5054621;28;20036;-82
2023/08/06 09:35:33;;;;;;;2.58;0.65;;;;;;;-142.57;22.89;115900.28;5052897;28;20049;-85
2023/08/06 09:38:07;;;;;;;2.20;0.70;;;;;;;-142.57;22.53;115900.28;5054021;28;20025;-83
2023/08/06 09:40:32;;;;;;;3.58;0.70;;;;;;;-142.57;22.24;115900.28;5055567;28;20049;-87
2023/08/06 09:42:59;;;;;;;3.40;0.90;;;;;;;-142.57;21.68;115900.28;5057600;28;20037;-86
2023/08/06 09:45:56;;;;;;;2.67;0.43;;;;;;;-142.57;21.67;115900.28;5055097;28;20036;-82
2023/08/06 09:48:24;;;;;;;0.93;0.50;;;;;;;-142.57;21.29;115900.28;5051713;28;20055;-86
2023/08/06 09:50:52;;;;;;;2.10;0.70;;;;;;;-142.57;21.51;115900.28;5044356;28;20026;-84
2023/08/06 09:53:19;;;;;;;0.85;0.50;;;;;;;-142.57;21.40;115900.28;5034230;28;20073;-84
2023/08/06 09:55:45;;;;;;;3.70;0.80;;;;;;;-142.57;21.27;115900.28;5035742;28;20124;-83
2023/08/06 09:58:11;;;;;;;2.13;0.70;;;;;;;-142.57;21.49;115900.28;5035014;28;20059;-81
2023/08/06 10:00:38;;;;;;;2.47;0.40;;;;;;;-142.57;21.48;115900.28;5036183;28;20030;-85
2023/08/06 10:03:05;;;;;;;4.68;0.50;;;;;;;-142.57;20.85;115900.28;5055520;28;20040;-85
2023/08/06 10:05:31;;;;;;;1.63;0.90;;;;;;;-142.57;20.75;115900.28;5064637;28;20039;-88
2023/08/06 10:08:00;;;;;;;4.35;0.60;;;;;;;-142.57;21.27;115900.28;5071648;28;20033;-87
2023/08/06 10:10:45;;;;;;;2.63;0.65;;;;;;;-142.57;20.91;115900.28;5055642;28;20041;-89
2023/08/06 10:13:19;;;;;;;3.10;0.80;;;;;;;-142.57;20.81;115900.28;5074977;28;20045;-88
2023/08/06 10:15:47;;;;;;;1.80;0.82;;;;;;;-142.57;20.62;115900.28;5069586;28;20031;-84
2023/08/06 10:18:17;;;;;;;0.60;0.40;;;;;;;-142.57;20.38;115900.28;5055842;28;20389;-87
2023/08/06 10:20:47;;;;;;;2.90;1.00;;;;;;;-142.57;20.51;115900.28;5070683;28;20037;-88
2023/08/06 10:23:14;;;;;;;9.68;0.75;;;;;;;-142.57;20.52;115900.28;5071051;28;20060;-86
2023/08/06 10:25:42;;;;;;;0.95;0.50;;;;;;;-142.57;20.30;115900.28;5066984;28;20045;-85
2023/08/06 10:28:15;;;;;;;1.25;0.50;;;;;;;-142.57;20.72;115900.28;5065787;28;20029;-87
2023/08/06 10:30:46;;;;;;;2.60;0.57;;;;;;;-142.57;20.92;115900.28;5066549;28;20097;-86
2023/08/06 10:33:16;;;;;;;3.45;0.82;;;;;;;-142.57;20.72;115900.28;5069749;28;20112;-85
2023/08/06 10:35:49;;;;;;;1.20;0.57;;;;;;;-142.57;20.47;115900.28;5053464;28;20041;-85
2023/08/06 10:38:32;;;;;;;1.00;0.57;;;;;;;-142.57;20.09;115900.28;5059732;28;20097;-86
2023/08/06 10:41:03;;;;;;;1.25;0.60;;;;;;;-142.57;19.98;115900.28;5062125;28;20049;-83
2023/08/06 10:46:34;;;;;;;;;;;;;;;-142.57;20.37;115900.28;4787024;26;20045;-83
2023/08/06 10:49:10;;;;;;;3.35;0.60;;;;;;;-142.57;20.29;115900.28;5070520;28;19917;-85
2023/08/06 10:51:49;;;;;;;3.05;0.55;;;;;;;-142.57;19.92;115900.28;5061383;28;20453;-81
2023/08/06 10:54:15;;;;;;;1.85;0.70;;;;;;;-142.57;19.68;115900.28;5065226;28;20104;-85
2023/08/06 10:56:42;;;;;;;3.20;0.57;;;;;;;-142.57;20.16;115900.28;5065792;28;20037;-81
2023/08/06 10:59:07;;;;;;;1.13;0.60;;;;;;;-142.57;20.21;115900.28;5059636;28;20013;-85
2023/08/06 11:01:35;;;;;;;0.90;0.70;;;;;;;-142.57;19.91;115900.28;5060745;28;20037;-84
2023/08/06 11:04:02;;;;;;;2.40;1.00;;;;;;;-142.57;20.06;115900.28;5059048;28;20040;-82
2023/08/06 11:06:28;;;;;;;1.08;0.60;;;;;;;-142.57;19.68;115900.28;5058230;28;20063;-85
2023/08/06 11:08:54;;;;;;;0.80;0.45;;;;;;;-142.57;20.00;115900.28;5061639;28;20060;-87
2023/08/06 11:11:22;;;;;;;2.35;0.80;;;;;;;-142.57;19.79;115900.28;5059309;28;20025;-81
2023/08/06 11:13:49;;;;;;;5.70;1.83;;;;;;;-142.57;19.66;115900.28;5058567;28;20037;-84
2023/08/06 11:16:26;;;;;;;1.75;0.30;;;;;;;-142.57;19.77;115900.28;5061649;28;20509;-82
2023/08/06 11:18:56;;;;;;;0.50;0.40;;;;;;;-142.57;19.74;115900.28;5042880;28;20041;-84
2023/08/06 11:21:24;;;;;;;1.83;0.80;;;;;;;-142.57;20.49;115900.28;5055806;28;20033;-83
2023/08/06 11:23:53;;;;;;;1.63;0.50;;;;;;;-142.57;20.25;115900.28;5059482;28;20034;-83
2023/08/06 11:26:28;;;;;;;1.35;0.60;;;;;;;-142.57;19.77;115900.28;5050145;28;20402;-82
2023/08/06 11:29:14;;;;;;;3.15;0.50;;;;;;;-142.57;19.99;115900.28;5053339;28;20102;-85
2023/08/06 11:32:12;;;;;;;1.95;0.70;;;;;;;-142.57;19.59;115900.28;5073296;28;20060;-86
2023/08/06 11:34:41;;;;;;;1.17;0.65;;;;;;;-142.57;19.80;115900.28;5070649;28;20033;-87
2023/08/06 11:37:25;;;;;;;1.58;0.90;;;;;;;-142.57;19.38;115900.28;5064543;28;20041;-83
2023/08/06 11:45:11;;;;;;;2.85;0.80;;;;;;;-142.57;20.47;115900.28;964462;26;20317;-85
2023/08/06 11:47:49;;;;;;;1.38;0.60;;;;;;;-142.57;20.83;115900.28;5071240;28;20482;-86
2023/08/06 11:50:23;;;;;;;2.08;0.73;;;;;;;-142.57;21.16;115900.28;5069172;28;20071;-83
2023/08/06 11:55:31;;;;;;;5.25;0.60;;;;;;;-142.57;21.33;115900.28;4278539;26;20045;-85
2023/08/06 11:58:16;;;;;;;3.15;0.82;;;;;;;-142.57;21.66;115900.28;5072130;28;20020;-83